Airfield :
LOGIN :

Register | Disclaimer

   EN    FR    IT 

 










Legend :    VFR   Marginal VFR   IFR   Intensive IFR   Very Intensive IFR
Visi :
Ceiling :
>= 8 km
>= 3000ft
5 to 8 km
1000 to 3000 ft
1500m to 5 km
500 to 1000 ft
800 to 1500m
200 to 500 ft
< 800m
< 200 ft
Symbols :   Thunderstorms  Fog  Heavy snow  Heavy precipitations  Wind > 20 kt
SIGMETs :     Misc.  Thunderstorms  Icing  Turbulence  Mountain Waves  Volcanic Ashes






- Airport Elevation : 876 ft
- IATA code : MBX


LJMB - Maribor

CURRENT METAR :
  • 021600Z 17006KT CAVOK 12/M10 Q1011

EXPIRED METARs :
  • 021530Z 16006KT 130V190 CAVOK 12/M11 Q1011
  • 021500Z 16006KT 130V200 CAVOK 12/M10 Q1011
  • 021430Z 14006KT 110V170 CAVOK 12/M11 Q1012
  • 021400Z 15007KT 100V190 CAVOK 12/M10 Q1012
  • 021330Z 14007KT 110V170 CAVOK 11/M11 Q1013

TAF TAF LJMB
Valid from the 02 at 12:00 until the 03 at 12:00 UTC


021100Z 0212/0312 17010KT CAVOK
BECMG 0216/0218 15003KT



MET'MAP, your aeronautical weather chart ! - Copyright ORBIFLY December 2007 - Disclaimer

ORBIFLY MET'MAP TEAM :

Programming & Development : Alexandra Zaïnal
Concept & original design : Baudouin d'Aumeries
Assistance for programming : Marc-Olivier Méhu
Technical & hardware support : Manuel Goepfert

Contact : metmap@orbifly.com




SOURCES & CREDITS :

   NOAA